Time;durP1;ratioP1;P1;durP2;ratioP2;P2;SDS_P1;SDS_P2;PMS_P1;PMS_P2;Temp;Humidity;BMP_temperature;BMP_pressure;BME280_temperature;BME280_humidity;BME280_pressure;Samples;Min_cycle;Max_cycle;Signal;HPM_P1;HPM_P2
2022/04/14 00:02:01;;;;;;;6.23;5.63;;;12.80;99.90;;;;;;4938334;28;20441;-90
2022/04/14 00:04:26;;;;;;;7.70;5.80;;;12.70;99.90;;;;;;4942215;28;20640;-89
2022/04/14 00:06:52;;;;;;;6.17;5.60;;;12.80;99.90;;;;;;4927629;28;20267;-90
2022/04/14 00:09:18;;;;;;;6.57;5.87;;;12.80;99.90;;;;;;4950076;28;20189;-88
2022/04/14 00:11:44;;;;;;;6.57;5.73;;;12.70;99.90;;;;;;4937734;28;20597;-88
2022/04/14 00:14:09;;;;;;;6.17;5.57;;;12.70;99.90;;;;;;4936583;28;20481;-88
2022/04/14 00:16:35;;;;;;;6.90;6.20;;;12.70;99.90;;;;;;4956515;28;20353;-89
2022/04/14 00:19:01;;;;;;;8.57;6.07;;;12.60;99.90;;;;;;4936449;28;20246;-88
2022/04/14 00:21:26;;;;;;;8.60;5.90;;;12.50;99.90;;;;;;4924142;28;21216;-88
2022/04/14 00:23:52;;;;;;;6.80;6.20;;;12.40;99.90;;;;;;4937019;28;20193;-88
2022/04/14 00:26:17;;;;;;;8.10;6.33;;;12.30;99.90;;;;;;4937206;28;20308;-90
2022/04/14 00:28:43;;;;;;;6.77;6.23;;;12.30;99.90;;;;;;4952223;28;20269;-87
2022/04/14 00:31:09;;;;;;;9.00;6.03;;;12.20;99.90;;;;;;4948662;28;20182;-86
2022/04/14 00:33:34;;;;;;;6.93;6.23;;;12.10;99.90;;;;;;4948686;28;20794;-90
2022/04/14 00:36:00;;;;;;;7.20;6.50;;;12.00;99.90;;;;;;4934566;28;20658;-90
2022/04/14 00:38:26;;;;;;;6.80;5.43;;;12.00;99.90;;;;;;4940995;28;20826;-89
2022/04/14 00:40:55;;;;;;;7.23;5.50;;;11.90;99.90;;;;;;4926426;28;20178;-87
2022/04/14 00:43:27;;;;;;;9.50;6.00;;;12.00;99.90;;;;;;4950624;28;20217;-88
2022/04/14 00:45:53;;;;;;;7.23;6.30;;;12.00;99.90;;;;;;4962358;28;20449;-89
2022/04/14 00:48:18;;;;;;;6.17;5.57;;;11.90;99.90;;;;;;4930673;28;20856;-89
2022/04/14 00:50:44;;;;;;;9.03;5.93;;;12.00;99.90;;;;;;4940835;28;20182;-88
2022/04/14 00:53:10;;;;;;;11.10;6.77;;;12.10;99.90;;;;;;4924809;28;20551;-88
2022/04/14 00:55:35;;;;;;;5.93;5.17;;;12.10;99.90;;;;;;4928153;28;20186;-89
2022/04/14 00:58:01;;;;;;;8.17;5.50;;;12.10;99.90;;;;;;4955041;28;20324;-88
2022/04/14 01:00:26;;;;;;;6.00;5.40;;;11.90;99.90;;;;;;4934680;28;21303;-88
2022/04/14 01:02:54;;;;;;;6.20;5.60;;;11.80;99.90;;;;;;4941296;28;20215;-88
2022/04/14 01:05:21;;;;;;;7.63;6.30;;;11.80;99.90;;;;;;4945827;28;20185;-88
2022/04/14 01:07:49;;;;;;;7.90;5.97;;;11.80;99.90;;;;;;4938742;28;21197;-88
2022/04/14 01:10:16;;;;;;;6.20;5.60;;;11.90;99.90;;;;;;4931505;28;20445;-89
2022/04/14 01:12:42;;;;;;;7.43;5.30;;;11.90;99.90;;;;;;4926993;28;20465;-88
2022/04/14 01:15:13;;;;;;;6.13;5.53;;;12.00;99.90;;;;;;4935509;28;20787;-89
2022/04/14 01:17:40;;;;;;;7.17;6.20;;;11.80;99.90;;;;;;4938556;28;20544;-88
2022/04/14 01:20:06;;;;;;;7.47;6.77;;;11.70;99.90;;;;;;4928524;28;20540;-88
2022/04/14 01:22:35;;;;;;;6.43;5.63;;;11.70;99.90;;;;;;4925535;28;20449;-88
2022/04/14 01:25:02;;;;;;;7.40;5.10;;;11.60;99.90;;;;;;4939770;28;20425;-87
2022/04/14 01:27:28;;;;;;;5.53;5.03;;;11.60;99.90;;;;;;4939214;28;22246;-88
2022/04/14 01:29:54;;;;;;;6.93;5.80;;;11.60;99.90;;;;;;4947364;28;20959;-87
2022/04/14 01:32:23;;;;;;;9.23;6.30;;;11.60;99.90;;;;;;4934189;28;21037;-89
2022/04/14 01:34:49;;;;;;;6.00;5.40;;;11.60;99.90;;;;;;4958194;28;20195;-88
2022/04/14 01:37:15;;;;;;;8.50;5.30;;;11.60;99.90;;;;;;4960836;28;20432;-89
2022/04/14 01:39:41;;;;;;;5.73;5.10;;;11.50;99.90;;;;;;4945015;28;20512;-89
2022/04/14 01:42:07;;;;;;;7.97;5.90;;;11.60;99.90;;;;;;4921448;28;20186;-88
2022/04/14 01:44:33;;;;;;;6.97;5.90;;;11.50;99.90;;;;;;4934991;28;20570;-88
2022/04/14 01:46:59;;;;;;;6.33;5.73;;;11.50;99.90;;;;;;4956295;28;20460;-88
2022/04/14 01:49:25;;;;;;;6.10;5.60;;;11.50;99.90;;;;;;4936674;28;20452;-87
2022/04/14 01:51:50;;;;;;;6.63;5.70;;;11.40;99.90;;;;;;4936559;28;20507;-87
2022/04/14 01:54:25;;;;;;;5.93;5.40;;;11.30;99.90;;;;;;4932377;28;20312;-88
2022/04/14 01:56:50;;;;;;;6.73;5.70;;;11.20;99.90;;;;;;4935319;28;20280;-87
2022/04/14 01:59:16;;;;;;;7.37;6.30;;;11.20;99.90;;;;;;4931154;28;20790;-88
2022/04/14 02:01:41;;;;;;;8.60;5.63;;;11.20;99.90;;;;;;4942436;28;20280;-88
2022/04/14 02:04:07;;;;;;;6.97;5.50;;;11.20;99.90;;;;;;4941676;28;20707;-88
2022/04/14 02:06:33;;;;;;;6.40;5.57;;;11.10;99.90;;;;;;4952767;28;20850;-88
2022/04/14 02:08:59;;;;;;;7.60;6.10;;;11.10;99.90;;;;;;4929329;28;20190;-88
2022/04/14 02:11:24;;;;;;;8.03;5.60;;;11.10;99.90;;;;;;4930690;28;20472;-87
2022/04/14 02:13:50;;;;;;;7.10;5.70;;;11.00;99.90;;;;;;4929618;28;20221;-87
2022/04/14 02:16:16;;;;;;;5.57;5.10;;;11.00;99.90;;;;;;4941252;28;20943;-87
2022/04/14 02:18:42;;;;;;;6.60;5.63;;;11.00;99.90;;;;;;4939873;28;20686;-87
2022/04/14 02:21:07;;;;;;;6.10;5.30;;;10.90;99.90;;;;;;4932447;28;20214;-87
2022/04/14 02:23:33;;;;;;;7.80;5.33;;;10.80;99.90;;;;;;4940023;28;20519;-88
2022/04/14 02:25:59;;;;;;;5.50;4.93;;;10.90;99.90;;;;;;4956361;28;20217;-88
2022/04/14 02:28:24;;;;;;;8.20;5.87;;;10.90;99.90;;;;;;4922540;28;20189;-88
2022/04/14 02:30:50;;;;;;;6.90;6.20;;;10.90;99.90;;;;;;4931056;28;20698;-88
2022/04/14 02:33:16;;;;;;;6.37;4.93;;;10.90;99.90;;;;;;4957612;28;20214;-88
2022/04/14 02:35:41;;;;;;;6.67;5.77;;;10.80;99.90;;;;;;4945142;28;20190;-88
2022/04/14 02:38:07;;;;;;;8.07;5.33;;;10.80;99.90;;;;;;4928470;28;20252;-89
2022/04/14 02:40:32;;;;;;;7.90;5.50;;;10.70;99.90;;;;;;4926086;28;20320;-88
2022/04/14 02:42:58;;;;;;;8.00;5.33;;;10.70;99.90;;;;;;4931688;28;20429;-87
2022/04/14 02:45:25;;;;;;;9.60;6.17;;;10.70;99.90;;;;;;4941942;28;20273;-88
2022/04/14 02:47:51;;;;;;;6.73;5.37;;;10.70;99.90;;;;;;4938768;28;20636;-88
2022/04/14 02:50:18;;;;;;;7.67;4.93;;;10.70;99.90;;;;;;4954179;28;20452;-88
2022/04/14 02:52:44;;;;;;;12.97;6.00;;;10.70;99.90;;;;;;4930448;28;20469;-89
2022/04/14 02:55:09;;;;;;;6.80;4.90;;;10.80;99.90;;;;;;4930332;28;20548;-88
2022/04/14 02:57:35;;;;;;;9.97;5.67;;;10.80;99.90;;;;;;4938101;28;20553;-88
2022/04/14 03:00:11;;;;;;;5.97;5.40;;;10.80;99.90;;;;;;4944841;28;20650;-89
2022/04/14 03:02:41;;;;;;;5.53;5.03;;;10.80;99.90;;;;;;4949641;28;20458;-88
2022/04/14 03:05:07;;;;;;;7.00;5.30;;;10.80;99.90;;;;;;4946040;28;20453;-89
2022/04/14 03:07:34;;;;;;;8.93;5.83;;;10.90;99.90;;;;;;4941227;28;20452;-89
2022/04/14 03:10:00;;;;;;;6.57;5.10;;;10.90;99.90;;;;;;4928242;28;20576;-88
2022/04/14 03:12:26;;;;;;;6.50;5.10;;;10.90;99.90;;;;;;4928447;28;20456;-88
2022/04/14 03:14:52;;;;;;;7.53;5.40;;;10.90;99.90;;;;;;4940028;28;20496;-88
2022/04/14 03:17:17;;;;;;;5.60;4.97;;;10.90;99.90;;;;;;4967233;28;20276;-88
2022/04/14 03:19:43;;;;;;;8.87;6.10;;;10.90;99.90;;;;;;4940721;28;20212;-89
2022/04/14 03:22:09;;;;;;;6.17;5.10;;;10.90;99.90;;;;;;4932728;28;20680;-88
2022/04/14 03:24:34;;;;;;;5.90;5.40;;;10.80;99.90;;;;;;4937248;28;20213;-88
2022/04/14 03:27:00;;;;;;;6.57;5.93;;;10.70;99.90;;;;;;4928565;28;20273;-87
2022/04/14 03:29:32;;;;;;;6.63;6.00;;;10.40;99.90;;;;;;4939343;28;20236;-87
2022/04/14 03:31:58;;;;;;;8.73;5.93;;;10.40;99.90;;;;;;4948725;28;20186;-87
2022/04/14 03:34:24;;;;;;;9.17;5.53;;;10.50;99.90;;;;;;4938656;28;21444;-86
2022/04/14 03:36:49;;;;;;;7.37;5.10;;;10.50;99.90;;;;;;4937121;28;20448;-87
2022/04/14 03:39:15;;;;;;;9.13;5.53;;;10.40;99.90;;;;;;4939617;28;20491;-87
2022/04/14 03:41:41;;;;;;;7.30;5.60;;;10.50;99.90;;;;;;4936828;28;20930;-87
2022/04/14 03:44:10;;;;;;;9.50;7.50;;;10.60;99.90;;;;;;4934074;28;20709;-87
2022/04/14 03:46:47;;;;;;;9.20;5.93;;;10.60;99.90;;;;;;4929429;28;20217;-87
2022/04/14 03:49:12;;;;;;;9.00;5.97;;;10.60;99.90;;;;;;4936165;28;21217;-87
2022/04/14 03:51:39;;;;;;;7.40;6.43;;;10.60;99.90;;;;;;4932476;28;20487;-87
2022/04/14 03:54:05;;;;;;;6.23;5.63;;;10.60;99.90;;;;;;4935223;28;20218;-87
2022/04/14 03:56:30;;;;;;;6.90;5.50;;;10.60;99.90;;;;;;4946553;28;20442;-87
2022/04/14 03:58:56;;;;;;;8.20;6.00;;;10.50;99.90;;;;;;4930118;28;20217;-87
2022/04/14 04:01:21;;;;;;;7.57;5.83;;;10.50;99.90;;;;;;4936772;28;20249;-88
2022/04/14 04:03:48;;;;;;;7.90;5.40;;;10.40;99.90;;;;;;4938238;28;20332;-87
2022/04/14 04:06:13;;;;;;;6.00;5.40;;;10.30;99.90;;;;;;4936294;28;20182;-87
2022/04/14 04:08:39;;;;;;;6.23;5.67;;;10.30;99.90;;;;;;4944715;28;21381;-87
2022/04/14 04:11:05;;;;;;;10.33;6.07;;;10.20;99.90;;;;;;4931857;28;20195;-87
2022/04/14 04:13:31;;;;;;;6.63;5.90;;;10.10;99.90;;;;;;4947740;28;20636;-88
2022/04/14 04:15:56;;;;;;;6.20;5.60;;;10.10;99.90;;;;;;4940706;28;20461;-87
2022/04/14 04:18:22;;;;;;;7.00;6.30;;;10.10;99.90;;;;;;4925647;28;20225;-87
2022/04/14 04:20:48;;;;;;;7.10;5.53;;;10.10;99.90;;;;;;4935193;28;20667;-86
2022/04/14 04:23:16;;;;;;;7.70;6.20;;;10.10;99.90;;;;;;4937749;28;20189;-87
2022/04/14 04:25:42;;;;;;;8.00;5.53;;;10.10;99.90;;;;;;4942529;28;20984;-87
2022/04/14 04:28:08;;;;;;;8.63;6.10;;;10.00;99.90;;;;;;4930967;28;20444;-87
2022/04/14 04:30:36;;;;;;;8.10;6.17;;;10.00;99.90;;;;;;4930378;28;23393;-88
2022/04/14 04:33:04;;;;;;;6.70;6.03;;;10.00;99.90;;;;;;4961630;28;20206;-87
2022/04/14 04:35:29;;;;;;;6.83;5.63;;;9.90;99.90;;;;;;4939709;28;20999;-87
2022/04/14 04:37:55;;;;;;;7.03;5.60;;;9.90;99.90;;;;;;4944875;28;21430;-88
2022/04/14 04:40:22;;;;;;;6.97;5.47;;;9.80;99.90;;;;;;4950353;28;20185;-87
2022/04/14 04:42:48;;;;;;;8.90;5.70;;;9.80;99.90;;;;;;4921186;28;20194;-88
2022/04/14 04:45:14;;;;;;;6.37;5.33;;;9.80;99.90;;;;;;4940868;28;20923;-87
2022/04/14 04:47:42;;;;;;;6.03;5.53;;;9.80;99.90;;;;;;4941673;28;20297;-87
2022/04/14 04:50:08;;;;;;;9.57;7.03;;;9.80;99.90;;;;;;4934506;28;20252;-88
2022/04/14 04:52:37;;;;;;;6.40;5.80;;;9.80;99.90;;;;;;4938392;28;20979;-87
2022/04/14 04:55:03;;;;;;;8.03;4.93;;;9.90;99.90;;;;;;4924782;28;20542;-87
2022/04/14 04:57:29;;;;;;;9.30;6.60;;;9.90;99.90;;;;;;4945497;28;20479;-88
2022/04/14 04:59:55;;;;;;;6.90;5.50;;;10.00;99.90;;;;;;4954756;28;20870;-88
2022/04/14 05:02:23;;;;;;;7.43;6.27;;;10.00;99.90;;;;;;4954304;28;20217;-88
2022/04/14 05:04:49;;;;;;;10.80;7.93;;;10.00;99.90;;;;;;4975679;28;20203;-88
2022/04/14 05:07:15;;;;;;;7.20;6.03;;;10.00;99.90;;;;;;4959912;28;20441;-87
2022/04/14 05:09:41;;;;;;;6.93;5.93;;;9.90;99.90;;;;;;4949860;28;20185;-85
2022/04/14 05:12:07;;;;;;;9.73;5.77;;;10.00;99.90;;;;;;4952976;28;20201;-85
2022/04/14 05:14:34;;;;;;;6.13;5.37;;;10.00;99.90;;;;;;4937124;28;20288;-87
2022/04/14 05:17:00;;;;;;;8.27;5.37;;;10.10;99.90;;;;;;4959515;28;20767;-87
2022/04/14 05:19:28;;;;;;;8.37;5.77;;;10.10;99.90;;;;;;4984625;28;20452;-86
2022/04/14 05:21:54;;;;;;;8.70;6.40;;;10.10;99.90;;;;;;4972612;28;20436;-84
2022/04/14 05:24:21;;;;;;;10.83;8.60;;;10.20;99.90;;;;;;4950895;28;20499;-86
2022/04/14 05:26:46;;;;;;;8.43;6.03;;;10.20;99.90;;;;;;4982016;28;20292;-84
2022/04/14 05:29:13;;;;;;;7.60;6.80;;;10.20;99.90;;;;;;4961058;28;20552;-86
2022/04/14 05:31:40;;;;;;;6.03;5.40;;;10.20;99.90;;;;;;4972307;28;20540;-85
2022/04/14 05:34:06;;;;;;;7.97;6.67;;;10.30;99.90;;;;;;4961894;28;20475;-88
2022/04/14 05:36:32;;;;;;;7.20;6.20;;;10.30;99.90;;;;;;4963059;28;20183;-85
2022/04/14 05:38:57;;;;;;;7.17;6.53;;;10.40;99.90;;;;;;4962478;28;20190;-86
2022/04/14 05:41:23;;;;;;;6.57;5.97;;;10.50;99.90;;;;;;4964223;28;20196;-85
2022/04/14 05:43:48;;;;;;;9.37;6.50;;;10.60;99.90;;;;;;4956333;28;20635;-85
2022/04/14 05:46:16;;;;;;;13.67;6.67;;;10.70;99.90;;;;;;4958943;28;20190;-84
2022/04/14 05:48:45;;;;;;;7.80;6.90;;;10.90;99.90;;;;;;4929266;28;20194;-84
2022/04/14 05:51:10;;;;;;;10.57;8.50;;;11.00;99.90;;;;;;4966928;28;20452;-85
2022/04/14 05:53:36;;;;;;;9.30;8.50;;;11.20;99.90;;;;;;4955588;28;20472;-88
2022/04/14 05:56:10;;;;;;;10.77;8.33;;;11.20;99.90;;;;;;5047649;27;21030;-91
2022/04/14 05:58:49;;;;;;;8.80;7.67;;;11.30;99.90;;;;;;5054772;28;20724;-91
2022/04/14 06:01:14;;;;;;;11.77;9.70;;;11.50;99.90;;;;;;5041758;28;20186;-89
2022/04/14 06:03:40;;;;;;;10.13;9.10;;;11.60;99.90;;;;;;5050907;28;20447;-88
2022/04/14 06:06:06;;;;;;;16.50;10.40;;;11.60;99.90;;;;;;5065058;28;20514;-89
2022/04/14 06:08:32;;;;;;;11.40;9.50;;;11.80;99.90;;;;;;5045063;28;20799;-89
2022/04/14 06:10:58;;;;;;;14.93;11.10;;;11.90;99.90;;;;;;5064034;28;20975;-90
2022/04/14 06:13:24;;;;;;;10.83;9.73;;;12.00;99.90;;;;;;5038430;28;20644;-87
2022/04/14 06:15:49;;;;;;;12.20;10.80;;;12.20;99.90;;;;;;5045230;28;20475;-88
2022/04/14 06:18:15;;;;;;;10.33;9.30;;;12.30;99.90;;;;;;5045330;28;20190;-91
2022/04/14 06:20:40;;;;;;;10.30;9.27;;;12.30;99.90;;;;;;5042459;28;20783;-92
2022/04/14 06:23:06;;;;;;;11.97;10.20;;;12.50;99.90;;;;;;5053530;28;20186;-88
2022/04/14 06:25:32;;;;;;;13.80;11.40;;;12.60;99.90;;;;;;5046995;28;20189;-89
2022/04/14 06:27:57;;;;;;;12.40;11.10;;;12.70;99.90;;;;;;5041791;28;20186;-89
2022/04/14 06:30:23;;;;;;;14.53;11.20;;;12.80;99.90;;;;;;5050860;28;20853;-90
2022/04/14 06:33:02;;;;;;;13.60;11.20;;;12.80;99.90;;;;;;5087588;28;20182;-89
2022/04/14 06:35:29;;;;;;;14.03;11.57;;;12.80;99.90;;;;;;5056802;28;20570;-90
2022/04/14 06:37:57;;;;;;;16.70;11.90;;;12.70;99.90;;;;;;5049773;28;20439;-88
2022/04/14 06:40:23;;;;;;;12.87;11.57;;;12.90;99.90;;;;;;5055307;28;20441;-89
2022/04/14 06:42:49;;;;;;;14.77;12.00;;;13.10;99.90;;;;;;5060550;28;20456;-89
2022/04/14 06:45:16;;;;;;;16.83;13.53;;;13.30;99.90;;;;;;5045868;28;20462;-88
2022/04/14 06:47:41;;;;;;;14.33;12.87;;;13.60;99.90;;;;;;5052725;28;24291;-89
2022/04/14 06:50:22;;;;;;;15.40;13.90;;;13.70;99.90;;;;;;5066921;28;20636;-89
2022/04/14 06:53:08;;;;;;;16.63;14.93;;;13.80;99.90;;;;;;5060341;28;20316;-89
2022/04/14 06:55:48;;;;;;;18.63;14.37;;;13.90;99.90;;;;;;5060878;28;20540;-89
2022/04/14 06:58:13;;;;;;;19.57;16.60;;;14.00;99.90;;;;;;5049323;28;20542;-89
2022/04/14 07:00:40;;;;;;;19.43;17.43;;;14.00;99.90;;;;;;5060935;28;20872;-90
2022/04/14 07:03:06;;;;;;;18.60;16.60;;;14.00;99.90;;;;;;5076650;28;20465;-91
2022/04/14 07:05:32;;;;;;;25.30;18.40;;;14.20;99.90;;;;;;5044986;28;20442;-92
2022/04/14 07:07:57;;;;;;;25.33;19.57;;;14.30;99.90;;;;;;5036364;28;20190;-92
2022/04/14 07:10:23;;;;;;;25.13;20.47;;;14.40;99.90;;;;;;5036869;28;20190;-90
2022/04/14 07:12:51;;;;;;;23.87;19.70;;;14.50;99.90;;;;;;5044644;28;20652;-91
2022/04/14 07:15:16;;;;;;;25.10;20.03;;;14.60;99.90;;;;;;5046810;28;20548;-91
2022/04/14 07:17:42;;;;;;;21.40;19.13;;;14.70;99.90;;;;;;5055721;28;20520;-91
2022/04/14 07:20:11;;;;;;;25.33;20.87;;;14.70;99.90;;;;;;5042144;28;20372;-91
2022/04/14 07:22:49;;;;;;;21.83;19.57;;;14.80;99.90;;;;;;5028374;28;20198;-91
2022/04/14 07:25:15;;;;;;;25.77;20.80;;;15.00;99.90;;;;;;5025978;28;20440;-91
2022/04/14 07:27:41;;;;;;;22.27;19.73;;;15.00;99.90;;;;;;5024438;28;20445;-91
2022/04/14 07:30:08;;;;;;;21.30;18.37;;;15.10;99.90;;;;;;5038218;28;20976;-91
2022/04/14 07:32:45;;;;;;;24.33;20.73;;;15.30;99.90;;;;;;5067913;28;20440;-91
2022/04/14 07:35:12;;;;;;;23.40;19.57;;;15.30;99.90;;;;;;5048150;28;20483;-90
2022/04/14 07:37:37;;;;;;;24.97;21.20;;;15.40;99.90;;;;;;5028487;28;20460;-91
2022/04/14 07:40:05;;;;;;;27.90;23.43;;;15.40;99.90;;;;;;5052930;28;20521;-89
2022/04/14 07:42:42;;;;;;;23.67;21.17;;;15.50;99.90;;;;;;5012578;28;20255;-90
2022/04/14 07:45:09;;;;;;;25.00;22.30;;;15.60;99.90;;;;;;5047609;28;20536;-90
2022/04/14 07:47:44;;;;;;;24.90;21.90;;;15.70;99.90;;;;;;5051551;28;21568;-90
2022/04/14 07:50:11;;;;;;;22.30;20.10;;;15.50;99.90;;;;;;5034189;28;20449;-90
2022/04/14 07:52:55;;;;;;;27.23;22.60;;;15.70;99.90;;;;;;5053098;28;20445;-90
2022/04/14 07:55:30;;;;;;;24.17;21.07;;;16.00;99.90;;;;;;5048428;28;20507;-90
2022/04/14 07:57:57;;;;;;;23.90;19.90;;;16.20;99.90;;;;;;5042230;28;20481;-91
2022/04/14 08:00:24;;;;;;;21.30;19.13;;;16.30;99.90;;;;;;5048707;28;20453;-91
2022/04/14 08:02:56;;;;;;;24.03;19.87;;;16.60;99.90;;;;;;5060692;28;20437;-91
2022/04/14 08:05:36;;;;;;;21.47;18.63;;;16.80;99.90;;;;;;5028160;28;20531;-89
2022/04/14 08:08:07;;;;;;;23.87;21.30;;;16.40;99.90;;;;;;5045526;28;20490;-90
2022/04/14 08:10:33;;;;;;;24.07;21.40;;;16.40;99.90;;;;;;5039096;28;20839;-90
2022/04/14 08:12:59;;;;;;;21.73;19.43;;;16.20;99.90;;;;;;5025861;28;20746;-91
2022/04/14 08:15:25;;;;;;;22.73;18.67;;;16.00;99.90;;;;;;5026924;28;20986;-90
2022/04/14 08:17:51;;;;;;;23.37;20.90;;;15.80;99.90;;;;;;5060295;28;20436;-91
2022/04/14 08:20:20;;;;;;;24.30;21.97;;;16.10;99.90;;;;;;5044810;28;20441;-91
2022/04/14 08:22:51;;;;;;;22.20;19.80;;;16.40;99.90;;;;;;5037698;28;20183;-91
2022/04/14 08:25:22;;;;;;;23.97;21.40;;;16.60;99.90;;;;;;5049230;28;20476;-90
2022/04/14 08:27:49;;;;;;;25.60;22.30;;;16.90;99.90;;;;;;5049765;28;20703;-91
2022/04/14 08:30:16;;;;;;;26.60;21.83;;;16.90;99.90;;;;;;5067231;28;20436;-91
2022/04/14 08:32:43;;;;;;;26.10;23.47;;;16.50;99.90;;;;;;5050272;28;20808;-91
2022/04/14 08:35:10;;;;;;;25.33;22.63;;;16.50;99.90;;;;;;5067666;28;20993;-91
2022/04/14 08:37:55;;;;;;;24.33;21.03;;;16.40;99.90;;;;;;5069116;28;20501;-90
2022/04/14 08:40:29;;;;;;;23.73;21.13;;;16.90;99.90;;;;;;5060368;28;20446;-91
2022/04/14 08:43:08;;;;;;;22.40;20.10;;;17.40;99.90;;;;;;5061025;28;20428;-90
2022/04/14 08:45:48;;;;;;;22.73;20.33;;;17.10;99.90;;;;;;5038162;28;21619;-90
2022/04/14 08:48:14;;;;;;;23.70;21.50;;;17.30;99.90;;;;;;5029722;28;20442;-89
2022/04/14 08:50:42;;;;;;;21.50;19.33;;;17.70;99.90;;;;;;5035928;28;20747;-91
2022/04/14 08:53:25;;;;;;;22.67;20.27;;;17.90;99.90;;;;;;5049482;28;20433;-90
2022/04/14 08:55:53;;;;;;;22.87;20.17;;;17.70;99.90;;;;;;5058969;28;20473;-90
2022/04/14 08:58:26;;;;;;;28.03;21.40;;;17.60;99.90;;;;;;5046765;28;20579;-90
2022/04/14 09:00:54;;;;;;;20.83;18.83;;;17.50;99.90;;;;;;5064291;28;20515;-90
2022/04/14 09:03:20;;;;;;;22.57;20.17;;;17.30;99.90;;;;;;5055430;28;20523;-90
2022/04/14 09:05:46;;;;;;;23.67;21.23;;;17.10;99.90;;;;;;5054719;28;20449;-89
2022/04/14 09:08:11;;;;;;;22.10;19.90;;;17.10;99.90;;;;;;5035861;28;22135;-91
2022/04/14 09:10:37;;;;;;;21.57;19.20;;;17.40;99.90;;;;;;5038070;28;21075;-90
2022/04/14 09:13:03;;;;;;;21.27;19.00;;;17.50;99.90;;;;;;5053844;28;20179;-90
2022/04/14 09:15:40;;;;;;;24.30;20.10;;;17.50;99.90;;;;;;5022778;28;20439;-90
2022/04/14 09:18:12;;;;;;;21.80;19.27;;;17.60;99.90;;;;;;5047549;28;20186;-90
2022/04/14 09:20:50;;;;;;;;;;;;;;;;;;;;;
2022/04/14 09:23:20;;;;;;;24.20;19.83;;;17.80;99.90;;;;;;5040879;28;20494;-88
2022/04/14 09:26:14;;;;;;;23.00;19.27;;;18.30;99.90;;;;;;5026274;28;20460;-89
2022/04/14 09:29:06;;;;;;;22.53;20.37;;;18.80;99.90;;;;;;5057253;28;20516;-90
2022/04/14 09:31:48;;;;;;;22.03;19.80;;;19.10;99.90;;;;;;5052216;28;20440;-89
2022/04/14 09:34:36;;;;;;;22.17;19.80;;;18.80;99.90;;;;;;5019542;28;20461;-89
2022/04/14 09:37:15;;;;;;;24.83;22.20;;;18.70;99.90;;;;;;5041029;28;20452;-90
2022/04/14 09:39:55;;;;;;;21.87;19.40;;;19.10;99.90;;;;;;5036784;28;20814;-89
2022/04/14 09:42:22;;;;;;;21.80;19.67;;;19.50;99.90;;;;;;5045498;28;20436;-89
2022/04/14 09:44:48;;;;;;;23.50;21.10;;;19.60;99.90;;;;;;5050939;28;20440;-89
2022/04/14 09:47:39;;;;;;;22.43;20.13;;;19.60;99.90;;;;;;5044342;28;20437;-89
2022/04/14 09:50:07;;;;;;;21.80;19.53;;;19.50;99.90;;;;;;5022610;28;21111;-89
2022/04/14 09:52:32;;;;;;;21.67;18.17;;;19.80;99.90;;;;;;5021756;28;22271;-90
2022/04/14 09:55:12;;;;;;;21.80;19.40;;;20.30;99.90;;;;;;5044555;28;20575;-90
2022/04/14 09:57:37;;;;;;;20.53;18.33;;;20.60;99.90;;;;;;5024049;28;20197;-90
2022/04/14 10:00:04;;;;;;;21.13;18.93;;;20.90;99.90;;;;;;5017165;28;20441;-90
2022/04/14 10:02:30;;;;;;;22.27;19.77;;;21.00;99.50;;;;;;5032677;28;20200;-90
2022/04/14 10:04:57;;;;;;;18.63;16.93;;;21.20;99.90;;;;;;5037307;28;20498;-91
2022/04/14 10:07:22;;;;;;;23.03;21.00;;;21.20;98.90;;;;;;5024148;28;20451;-91
2022/04/14 10:09:50;;;;;;;22.50;20.10;;;21.00;98.40;;;;;;5023266;28;20442;-90
2022/04/14 10:12:19;;;;;;;22.03;19.97;;;20.60;99.30;;;;;;5038896;28;20586;-91
2022/04/14 10:14:56;;;;;;;20.90;18.70;;;21.00;99.90;;;;;;5028398;28;20506;-91
2022/04/14 10:17:26;;;;;;;18.33;16.63;;;21.70;99.00;;;;;;5036977;28;20509;-91
2022/04/14 10:19:54;;;;;;;21.60;19.30;;;22.20;97.70;;;;;;5024171;28;20435;-91
2022/04/14 10:22:21;;;;;;;23.10;20.90;;;21.30;97.30;;;;;;5048516;28;20445;-91
2022/04/14 10:24:47;;;;;;;22.70;20.60;;;21.10;97.30;;;;;;5023953;28;20454;-90
2022/04/14 10:27:16;;;;;;;22.37;18.77;;;20.70;98.40;;;;;;5026206;28;21274;-91
2022/04/14 10:32:43;;;;;;;20.03;18.03;;;21.30;98.00;;;;;;5052278;28;20437;-91
2022/04/14 10:35:09;;;;;;;20.80;18.67;;;21.40;98.50;;;;;;5014651;28;20452;-91
2022/04/14 10:37:42;;;;;;;20.33;18.30;;;21.60;98.00;;;;;;5019863;28;20511;-90
2022/04/14 10:40:14;;;;;;;20.60;18.40;;;21.90;98.90;;;;;;5041774;28;20942;-90
2022/04/14 10:42:48;;;;;;;20.90;18.53;;;22.40;95.80;;;;;;5026114;28;20846;-91
2022/04/14 10:45:18;;;;;;;17.37;15.50;;;22.60;95.60;;;;;;5021535;28;20434;-90
2022/04/14 10:47:50;;;;;;;18.40;16.50;;;23.00;95.90;;;;;;5040601;28;20444;-91
2022/04/14 10:50:36;;;;;;;19.40;17.40;;;23.30;95.90;;;;;;5022780;28;20575;-90
2022/04/14 10:53:09;;;;;;;19.10;16.43;;;23.20;94.80;;;;;;5045456;28;20518;-90
2022/04/14 10:55:44;;;;;;;18.63;16.87;;;23.30;94.40;;;;;;5034962;28;21257;-90
2022/04/14 10:58:38;;;;;;;20.20;18.30;;;23.20;94.20;;;;;;5050051;28;20432;-90
2022/04/14 11:01:05;;;;;;;20.27;18.30;;;23.20;93.00;;;;;;5062473;28;20490;-91
2022/04/14 11:03:46;;;;;;;21.00;18.87;;;23.00;93.00;;;;;;5039556;28;20576;-91
2022/04/14 11:06:41;;;;;;;20.33;18.20;;;22.10;94.30;;;;;;5052696;28;20875;-91
2022/04/14 11:09:08;;;;;;;17.97;16.37;;;22.00;94.30;;;;;;5055146;28;20498;-90
2022/04/14 11:11:59;;;;;;;19.00;16.17;;;22.80;94.30;;;;;;5044530;28;20972;-91
2022/04/14 11:14:25;;;;;;;19.80;17.70;;;23.60;93.50;;;;;;5052286;28;20483;-91
2022/04/14 11:16:51;;;;;;;19.00;17.10;;;23.50;92.90;;;;;;5040301;28;20584;-91
2022/04/14 11:19:24;;;;;;;18.70;17.00;;;23.50;94.40;;;;;;5042786;28;20179;-90
2022/04/14 11:21:59;;;;;;;18.63;16.73;;;23.60;93.70;;;;;;5038465;28;20452;-90
2022/04/14 11:24:45;;;;;;;17.93;16.13;;;24.00;92.60;;;;;;5024560;28;20860;-91
2022/04/14 11:27:21;;;;;;;18.63;16.77;;;23.80;93.40;;;;;;5038314;28;20963;-92
2022/04/14 11:29:51;;;;;;;17.27;15.60;;;23.70;92.70;;;;;;5035203;28;20519;-90
2022/04/14 11:32:36;;;;;;;16.07;14.13;;;23.00;93.10;;;;;;5024544;28;20570;-91
2022/04/14 11:35:13;;;;;;;16.83;15.03;;;23.80;93.20;;;;;;5030129;28;20468;-90
2022/04/14 11:37:40;;;;;;;18.60;16.80;;;24.70;92.30;;;;;;5042758;28;20453;-90
2022/04/14 11:40:21;;;;;;;17.43;15.60;;;24.60;91.30;;;;;;5045442;28;20498;-91
2022/04/14 11:42:51;;;;;;;17.63;15.40;;;24.70;90.10;;;;;;5038478;28;20488;-89
2022/04/14 11:45:25;;;;;;;14.70;13.17;;;24.30;91.30;;;;;;5044409;28;20445;-91
2022/04/14 11:47:54;;;;;;;15.60;14.10;;;24.40;91.10;;;;;;5031706;28;20444;-90
2022/04/14 11:50:27;;;;;;;22.77;15.30;;;24.60;91.20;;;;;;5044486;28;20982;-90
2022/04/14 11:53:01;;;;;;;21.13;13.90;;;25.10;90.50;;;;;;5025397;28;20446;-90
2022/04/14 11:55:37;;;;;;;22.00;14.10;;;25.20;89.90;;;;;;5016521;28;20481;-90
2022/04/14 11:58:07;;;;;;;14.20;12.80;;;25.10;89.20;;;;;;5035416;28;20518;-89
2022/04/14 12:00:47;;;;;;;15.47;14.03;;;24.80;90.10;;;;;;5035299;28;20454;-92
2022/04/14 12:03:13;;;;;;;15.10;11.80;;;24.30;89.30;;;;;;5030450;28;20453;-88
2022/04/14 12:05:42;;;;;;;14.20;12.80;;;25.00;89.70;;;;;;5030244;28;20448;-88
2022/04/14 12:08:10;;;;;;;15.50;14.10;;;25.70;89.20;;;;;;5025745;28;21000;-90
2022/04/14 12:10:36;;;;;;;14.67;13.27;;;25.40;88.30;;;;;;5037657;28;20452;-92
2022/04/14 12:13:06;;;;;;;14.60;13.20;;;25.70;88.30;;;;;;5026241;28;20827;-91
2022/04/14 12:15:32;;;;;;;17.40;15.50;;;25.20;86.20;;;;;;5038160;28;20214;-89
2022/04/14 12:18:06;;;;;;;18.73;16.13;;;24.60;87.50;;;;;;5040005;28;21797;-90
2022/04/14 12:20:44;;;;;;;17.50;15.80;;;24.20;88.20;;;;;;5036396;28;20548;-88
2022/04/14 12:23:13;;;;;;;18.60;16.90;;;23.40;89.60;;;;;;5041764;28;21477;-88
2022/04/14 12:25:41;;;;;;;16.87;15.13;;;23.80;91.60;;;;;;5042543;28;20520;-88
2022/04/14 12:28:07;;;;;;;17.63;16.10;;;24.50;90.60;;;;;;5029123;28;20453;-88
2022/04/14 12:30:34;;;;;;;17.10;15.50;;;24.80;90.00;;;;;;5047872;28;20445;-88
2022/04/14 12:33:05;;;;;;;18.03;16.30;;;25.20;90.20;;;;;;5033298;28;20187;-88
2022/04/14 12:35:38;;;;;;;18.13;16.37;;;25.50;90.20;;;;;;5030263;28;20481;-88
2022/04/14 12:38:19;;;;;;;19.80;17.27;;;24.90;87.40;;;;;;5031131;28;20441;-88
2022/04/14 12:40:59;;;;;;;17.03;15.33;;;25.00;85.70;;;;;;5043467;28;20962;-89
2022/04/14 12:43:39;;;;;;;18.53;17.00;;;25.40;87.40;;;;;;5047523;28;20836;-89
2022/04/14 12:46:25;;;;;;;16.90;15.17;;;25.00;83.10;;;;;;5055567;28;20856;-89
2022/04/14 12:49:09;;;;;;;18.23;16.43;;;24.90;87.30;;;;;;5054744;28;24142;-88
2022/04/14 12:51:36;;;;;;;15.20;14.00;;;25.10;87.60;;;;;;5051084;28;20434;-89